Time;durP1;ratioP1;P1;durP2;ratioP2;P2;SDS_P1;SDS_P2;PMS_P1;PMS_P2;Temp;Humidity;BMP_temperature;BMP_pressure;BME280_temperature;BME280_humidity;BME280_pressure;Samples;Min_cycle;Max_cycle;Signal;HPM_P1;HPM_P2
2023/01/11 00:01:40;;;;;;;3.07;2.87;;;;;;;;;;5099595;28;20200;-82
2023/01/11 00:04:08;;;;;;;2.43;2.33;;;;;;;;;;5110777;28;20215;-81
2023/01/11 00:06:35;;;;;;;2.50;2.40;;;;;;;;;;5111275;28;20235;-81
2023/01/11 00:09:02;;;;;;;2.70;2.50;;;;;;;;;;5062699;28;20215;-81
2023/01/11 00:11:29;;;;;;;1.80;1.70;;;;;;;;;;5100587;28;20205;-81
2023/01/11 00:13:56;;;;;;;2.17;2.00;;;;;;;;;;5072775;28;20208;-84
2023/01/11 00:16:23;;;;;;;1.63;1.53;;;;;;;;;;5082878;28;20218;-81
2023/01/11 00:18:50;;;;;;;1.87;1.77;;;;;;;;;;5059265;28;20197;-81
2023/01/11 00:21:21;;;;;;;1.83;1.73;;;;;;;;;;5080921;28;20232;-81
2023/01/11 00:23:49;;;;;;;1.90;1.80;;;;;;;;;;5090681;28;20208;-81
2023/01/11 00:26:16;;;;;;;1.83;1.73;;;;;;;;;;5079732;28;20745;-81
2023/01/11 00:28:43;;;;;;;3.80;1.70;;;;;;;;;;5088531;28;20261;-81
2023/01/11 00:31:10;;;;;;;2.17;2.07;;;;;;;;;;5072790;28;20204;-82
2023/01/11 00:33:37;;;;;;;2.40;2.20;;;;;;;;;;5090947;28;20200;-81
2023/01/11 00:36:04;;;;;;;1.67;1.57;;;;;;;;;;5072715;28;20193;-81
2023/01/11 00:38:45;;;;;;;1.93;1.80;;;;;;;;;;5109127;28;20212;-81
2023/01/11 00:49:26;;;;;;;1.90;1.80;;;;;;;;;;5114010;28;20259;-81
2023/01/11 00:51:53;;;;;;;2.07;1.97;;;;;;;;;;5114243;28;20590;-81
2023/01/11 00:54:22;;;;;;;3.10;2.90;;;;;;;;;;5069519;28;20205;-81
2023/01/11 00:56:48;;;;;;;5.43;2.90;;;;;;;;;;5105560;28;20204;-81
2023/01/11 00:59:15;;;;;;;3.30;3.00;;;;;;;;;;5107333;28;20208;-81
2023/01/11 01:01:42;;;;;;;3.10;2.90;;;;;;;;;;5094348;28;20252;-81
2023/01/11 01:04:09;;;;;;;9.67;3.90;;;;;;;;;;5093694;28;20216;-82
2023/01/11 01:06:36;;;;;;;8.17;4.37;;;;;;;;;;5103239;28;20717;-81
2023/01/11 01:09:03;;;;;;;27.60;4.77;;;;;;;;;;5082358;28;20199;-81
2023/01/11 01:11:31;;;;;;;18.13;4.93;;;;;;;;;;5103141;28;20204;-82
2023/01/11 01:16:44;;;;;;;53.27;6.07;;;;;;;;;;5113685;28;20278;-82
2023/01/11 01:19:11;;;;;;;78.83;7.10;;;;;;;;;;5093285;28;20208;-81
2023/01/11 01:21:38;;;;;;;59.37;6.60;;;;;;;;;;5106291;28;20260;-82
2023/01/11 01:24:05;;;;;;;41.70;6.77;;;;;;;;;;5088952;28;20200;-81
2023/01/11 01:26:33;;;;;;;55.30;7.20;;;;;;;;;;5093099;28;20212;-82
2023/01/11 01:29:00;;;;;;;88.07;8.60;;;;;;;;;;5093305;28;20257;-82
2023/01/11 01:31:27;;;;;;;44.40;6.20;;;;;;;;;;5072283;28;20215;-81
2023/01/11 01:33:54;;;;;;;44.40;5.97;;;;;;;;;;5095293;28;20677;-80
2023/01/11 01:36:21;;;;;;;20.93;5.47;;;;;;;;;;5112481;28;20649;-81
2023/01/11 01:38:49;;;;;;;9.40;5.57;;;;;;;;;;5100961;28;20199;-81
2023/01/11 01:41:16;;;;;;;6.53;4.73;;;;;;;;;;5112318;28;20284;-82
2023/01/11 01:43:49;;;;;;;6.30;5.03;;;;;;;;;;5092441;28;20215;-83
2023/01/11 01:46:16;;;;;;;16.10;5.43;;;;;;;;;;5093244;28;20211;-81
2023/01/11 01:48:44;;;;;;;5.43;4.93;;;;;;;;;;5093014;28;20204;-81
2023/01/11 01:51:14;;;;;;;5.60;4.77;;;;;;;;;;5089471;28;20201;-81
2023/01/11 01:53:43;;;;;;;6.03;5.17;;;;;;;;;;5065310;28;20215;-83
2023/01/11 01:56:12;;;;;;;5.30;4.40;;;;;;;;;;5089258;28;20254;-82
2023/01/11 01:58:45;;;;;;;7.40;5.10;;;;;;;;;;5084220;28;20200;-81
2023/01/11 02:03:59;;;;;;;5.93;5.30;;;;;;;;;;5085987;28;20686;-82
2023/01/11 02:06:26;;;;;;;31.70;6.80;;;;;;;;;;5104385;28;20220;-81
2023/01/11 02:08:57;;;;;;;42.90;8.27;;;;;;;;;;5089851;28;20208;-81
2023/01/11 02:11:33;;;;;;;6.73;4.87;;;;;;;;;;5076740;28;20240;-81
2023/01/11 02:14:03;;;;;;;5.53;4.90;;;;;;;;;;5072470;28;20201;-81
2023/01/11 02:16:31;;;;;;;9.70;5.47;;;;;;;;;;5072397;28;20205;-81
2023/01/11 02:18:59;;;;;;;23.30;5.80;;;;;;;;;;5072713;28;20247;-81
2023/01/11 02:21:32;;;;;;;68.87;7.40;;;;;;;;;;5084129;28;20215;-81
2023/01/11 02:24:12;;;;;;;5.80;4.30;;;;;;;;;;5098853;28;20568;-81
2023/01/11 02:27:10;;;;;;;4.37;3.97;;;;;;;;;;5110838;28;20203;-81
2023/01/11 02:29:46;;;;;;;4.43;4.03;;;;;;;;;;5089198;28;20215;-81
2023/01/11 02:32:21;;;;;;;5.13;3.93;;;;;;;;;;5097373;28;20200;-82
2023/01/11 02:34:52;;;;;;;2.87;2.13;;;;;;;;;;5087463;28;20207;-80
2023/01/11 02:37:27;;;;;;;2.07;1.87;;;;;;;;;;5091675;28;20221;-81
2023/01/11 02:40:02;;;;;;;2.00;1.90;;;;;;;;;;5109657;28;20279;-81
2023/01/11 02:45:32;;;;;;;2.00;1.77;;;;;;;;;;5103173;28;20245;-81
2023/01/11 02:48:01;;;;;;;2.63;2.10;;;;;;;;;;5088142;28;20200;-81
2023/01/11 02:50:34;;;;;;;2.57;2.37;;;;;;;;;;5082537;28;20200;-81
2023/01/11 02:53:05;;;;;;;2.90;1.80;;;;;;;;;;5082894;28;20245;-80
2023/01/11 02:55:34;;;;;;;2.17;1.97;;;;;;;;;;5099511;28;20655;-81
2023/01/11 02:58:02;;;;;;;1.00;0.90;;;;;;;;;;5091783;28;20196;-81
2023/01/11 03:00:30;;;;;;;0.40;0.40;;;;;;;;;;5105149;28;20661;-81
2023/01/11 03:03:09;;;;;;;0.40;0.40;;;;;;;;;;5098084;28;20687;-81
2023/01/11 03:05:38;;;;;;;0.83;0.80;;;;;;;;;;5099048;28;20226;-81
2023/01/11 03:08:18;;;;;;;0.90;0.90;;;;;;;;;;5088439;28;20207;-81
2023/01/11 03:11:00;;;;;;;0.60;0.60;;;;;;;;;;5098537;28;20215;-81
2023/01/11 03:13:37;;;;;;;0.50;0.50;;;;;;;;;;5111443;28;20238;-81
2023/01/11 03:16:17;;;;;;;1.07;1.03;;;;;;;;;;5112023;28;20217;-80
2023/01/11 03:18:50;;;;;;;1.50;1.40;;;;;;;;;;5098258;28;20210;-81
2023/01/11 03:21:25;;;;;;;1.43;1.30;;;;;;;;;;5101191;28;20222;-81
2023/01/11 03:23:59;;;;;;;1.63;1.30;;;;;;;;;;5110415;28;20206;-81
2023/01/11 03:26:31;;;;;;;1.27;1.23;;;;;;;;;;5111990;28;20208;-81
2023/01/11 03:29:06;;;;;;;1.07;0.93;;;;;;;;;;5097681;28;20201;-81
2023/01/11 03:31:37;;;;;;;2.73;1.07;;;;;;;;;;5099887;28;20290;-81
2023/01/11 03:34:14;;;;;;;0.90;0.90;;;;;;;;;;5100434;28;20218;-80
2023/01/11 03:36:43;;;;;;;3.10;1.90;;;;;;;;;;5094256;28;20265;-81
2023/01/11 03:39:13;;;;;;;1.80;1.70;;;;;;;;;;5091210;28;20265;-81
2023/01/11 03:41:41;;;;;;;2.40;2.20;;;;;;;;;;5095307;28;20227;-81
2023/01/11 03:44:10;;;;;;;1.33;1.23;;;;;;;;;;5088081;28;20208;-81
2023/01/11 03:46:41;;;;;;;1.30;1.20;;;;;;;;;;5103457;28;20648;-82
2023/01/11 03:49:11;;;;;;;1.20;1.10;;;;;;;;;;5091007;28;20200;-81
2023/01/11 03:51:42;;;;;;;0.63;0.63;;;;;;;;;;5070922;28;20201;-82
2023/01/11 03:54:11;;;;;;;1.03;1.03;;;;;;;;;;5071584;28;20231;-81
2023/01/11 03:56:43;;;;;;;1.50;1.10;;;;;;;;;;5078627;28;20200;-81
2023/01/11 03:59:10;;;;;;;0.80;0.80;;;;;;;;;;5090816;28;20212;-81
2023/01/11 04:01:38;;;;;;;0.70;0.70;;;;;;;;;;5091275;28;20228;-81
2023/01/11 04:04:05;;;;;;;0.80;0.80;;;;;;;;;;5091075;28;20227;-81
2023/01/11 04:06:34;;;;;;;0.70;0.70;;;;;;;;;;5081522;28;20726;-80
2023/01/11 04:09:00;;;;;;;0.90;0.90;;;;;;;;;;5070710;28;20205;-81
2023/01/11 04:11:27;;;;;;;1.20;1.17;;;;;;;;;;5079884;28;20204;-81
2023/01/11 04:13:54;;;;;;;0.90;0.90;;;;;;;;;;5104207;28;20200;-81
2023/01/11 04:16:21;;;;;;;1.00;1.00;;;;;;;;;;5105016;28;20207;-81
2023/01/11 04:18:49;;;;;;;0.70;0.70;;;;;;;;;;5086912;28;20232;-81
2023/01/11 04:21:16;;;;;;;1.30;0.93;;;;;;;;;;5094807;28;20240;-81
2023/01/11 04:23:42;;;;;;;1.03;1.00;;;;;;;;;;5101811;28;20201;-80
2023/01/11 04:26:09;;;;;;;1.13;0.97;;;;;;;;;;5084703;28;20216;-81
2023/01/11 04:28:36;;;;;;;0.67;0.67;;;;;;;;;;5090703;28;20266;-80
2023/01/11 04:31:03;;;;;;;1.00;1.00;;;;;;;;;;5084758;28;20192;-80
2023/01/11 04:33:29;;;;;;;0.90;0.90;;;;;;;;;;5097704;28;20223;-80
2023/01/11 04:35:57;;;;;;;1.07;1.07;;;;;;;;;;5111102;28;20599;-80
2023/01/11 04:38:26;;;;;;;0.60;0.60;;;;;;;;;;5100573;28;20207;-81
2023/01/11 04:42:17;;;;;;;1.00;0.90;;;;;;;;;;5099059;28;20316;-81
2023/01/11 04:43:38;;;;;;;1.47;1.37;;;;;;;;;;5081519;28;20203;-81
2023/01/11 04:46:09;;;;;;;1.47;1.37;;;;;;;;;;5094310;28;20286;-82
2023/01/11 04:48:36;;;;;;;1.43;1.10;;;;;;;;;;5094815;28;20617;-80
2023/01/11 04:51:04;;;;;;;1.10;0.90;;;;;;;;;;5094102;28;20645;-81
2023/01/11 04:53:31;;;;;;;1.07;1.07;;;;;;;;;;5102616;28;20255;-83
2023/01/11 04:56:00;;;;;;;0.93;0.93;;;;;;;;;;5085650;28;20224;-81
2023/01/11 04:58:26;;;;;;;0.90;0.90;;;;;;;;;;5093940;28;20579;-81
2023/01/11 05:00:53;;;;;;;0.50;0.50;;;;;;;;;;5107553;28;20224;-81
2023/01/11 05:03:20;;;;;;;0.53;0.53;;;;;;;;;;5093655;28;20208;-81
2023/01/11 05:05:55;;;;;;;0.60;0.60;;;;;;;;;;5094073;28;20241;-81
2023/01/11 05:08:23;;;;;;;0.80;0.80;;;;;;;;;;5104792;28;20206;-81
2023/01/11 05:10:52;;;;;;;1.13;1.00;;;;;;;;;;5111975;28;20207;-80
2023/01/11 05:13:19;;;;;;;0.67;0.67;;;;;;;;;;5095743;28;20216;-81
2023/01/11 05:15:46;;;;;;;0.50;0.50;;;;;;;;;;5102227;28;20230;-80
2023/01/11 05:18:12;;;;;;;1.07;1.07;;;;;;;;;;5087476;28;20208;-81
2023/01/11 05:20:39;;;;;;;1.30;1.20;;;;;;;;;;5106212;28;20211;-82
2023/01/11 05:23:06;;;;;;;1.90;1.80;;;;;;;;;;5085488;28;20594;-81
2023/01/11 05:25:35;;;;;;;1.40;1.30;;;;;;;;;;5109516;28;20202;-88
2023/01/11 05:28:01;;;;;;;1.70;1.60;;;;;;;;;;5090114;28;20200;-82
2023/01/11 05:30:28;;;;;;;1.60;1.50;;;;;;;;;;5077733;28;20217;-83
2023/01/11 05:32:55;;;;;;;1.40;1.30;;;;;;;;;;5111482;28;20203;-85
2023/01/11 05:35:22;;;;;;;2.20;1.60;;;;;;;;;;5109712;28;20200;-83
2023/01/11 05:37:48;;;;;;;1.60;1.50;;;;;;;;;;5084188;28;20254;-82
2023/01/11 05:40:15;;;;;;;1.60;1.50;;;;;;;;;;5091439;28;20207;-84
2023/01/11 05:42:45;;;;;;;1.50;1.40;;;;;;;;;;5099117;28;20227;-82
2023/01/11 05:45:31;;;;;;;1.20;1.10;;;;;;;;;;5100483;28;20215;-82
2023/01/11 05:47:58;;;;;;;1.03;1.03;;;;;;;;;;5081590;28;20211;-85
2023/01/11 05:50:25;;;;;;;2.50;2.30;;;;;;;;;;5079195;28;21602;-83
2023/01/11 05:52:51;;;;;;;2.00;1.80;;;;;;;;;;5091320;28;20637;-83
2023/01/11 05:55:18;;;;;;;5.03;4.30;;;;;;;;;;5105479;28;20216;-83
2023/01/11 05:57:46;;;;;;;13.00;9.50;;;;;;;;;;5092639;28;20188;-83
2023/01/11 06:00:14;;;;;;;7.17;5.07;;;;;;;;;;5082763;28;20204;-89
2023/01/11 06:02:41;;;;;;;3.37;2.70;;;;;;;;;;5095126;28;20622;-82
2023/01/11 06:05:09;;;;;;;3.73;3.43;;;;;;;;;;5092358;28;20230;-82
2023/01/11 06:07:36;;;;;;;4.50;4.20;;;;;;;;;;5091958;28;20212;-83
2023/01/11 06:10:03;;;;;;;2.33;2.13;;;;;;;;;;5104142;28;20697;-83
2023/01/11 06:12:29;;;;;;;2.03;1.53;;;;;;;;;;5112541;28;20257;-82
2023/01/11 06:14:58;;;;;;;2.37;2.17;;;;;;;;;;5100859;28;20211;-83
2023/01/11 06:17:25;;;;;;;3.90;3.60;;;;;;;;;;5092246;28;20211;-83
2023/01/11 06:19:51;;;;;;;2.87;2.53;;;;;;;;;;5092394;28;20261;-82
2023/01/11 06:22:18;;;;;;;2.53;1.70;;;;;;;;;;5097241;28;20654;-83
2023/01/11 06:24:45;;;;;;;2.83;1.47;;;;;;;;;;5087500;28;20202;-84
2023/01/11 06:27:11;;;;;;;1.57;1.47;;;;;;;;;;5110452;28;20211;-82
2023/01/11 06:29:38;;;;;;;1.23;1.13;;;;;;;;;;5112368;28;20261;-83
2023/01/11 06:32:07;;;;;;;1.17;1.13;;;;;;;;;;5112572;28;20208;-82
2023/01/11 06:34:34;;;;;;;1.33;1.23;;;;;;;;;;5098559;28;20200;-83
2023/01/11 06:37:01;;;;;;;1.20;1.10;;;;;;;;;;5078073;28;20204;-82
2023/01/11 06:39:28;;;;;;;1.40;1.30;;;;;;;;;;5092099;28;20200;-83
2023/01/11 06:41:54;;;;;;;1.40;1.30;;;;;;;;;;5095950;28;20219;-83
2023/01/11 06:44:21;;;;;;;2.03;1.90;;;;;;;;;;5078485;28;20641;-83
2023/01/11 06:46:48;;;;;;;2.13;1.97;;;;;;;;;;5078329;28;20200;-83
2023/01/11 06:49:16;;;;;;;2.10;2.00;;;;;;;;;;5091450;28;20215;-84
2023/01/11 06:51:43;;;;;;;1.77;1.60;;;;;;;;;;5084440;28;20208;-83
2023/01/11 06:54:09;;;;;;;2.33;2.07;;;;;;;;;;5085722;28;20650;-83
2023/01/11 06:56:36;;;;;;;4.77;4.27;;;;;;;;;;5084101;28;20601;-83
2023/01/11 06:59:03;;;;;;;7.03;5.60;;;;;;;;;;5085738;28;20196;-86
2023/01/11 07:01:31;;;;;;;10.17;9.07;;;;;;;;;;5091519;28;20711;-83
2023/01/11 07:03:57;;;;;;;8.80;7.93;;;;;;;;;;5089910;28;20681;-83
2023/01/11 07:06:28;;;;;;;3.87;3.47;;;;;;;;;;5078884;28;20737;-82
2023/01/11 07:08:54;;;;;;;6.13;4.70;;;;;;;;;;5089581;28;20211;-84
2023/01/11 07:11:21;;;;;;;15.47;9.03;;;;;;;;;;5088201;28;20207;-83
2023/01/11 07:13:48;;;;;;;4.97;4.37;;;;;;;;;;5094478;28;20215;-84
2023/01/11 07:16:16;;;;;;;4.87;4.17;;;;;;;;;;5080371;28;20646;-83
2023/01/11 07:18:42;;;;;;;8.00;5.83;;;;;;;;;;5091423;28;20204;-83
2023/01/11 07:21:09;;;;;;;16.73;13.23;;;;;;;;;;5100373;28;20224;-82
2023/01/11 07:23:37;;;;;;;5.53;4.10;;;;;;;;;;5084924;28;20197;-83
2023/01/11 07:26:04;;;;;;;1.43;1.33;;;;;;;;;;5111684;28;20207;-83
2023/01/11 07:28:31;;;;;;;1.43;1.33;;;;;;;;;;5094235;28;20213;-83
2023/01/11 07:30:58;;;;;;;2.47;2.27;;;;;;;;;;5091228;28;20200;-83
2023/01/11 07:33:25;;;;;;;3.93;2.80;;;;;;;;;;5091085;28;20265;-83
2023/01/11 07:35:52;;;;;;;2.80;2.60;;;;;;;;;;5091026;28;20682;-83
2023/01/11 07:38:19;;;;;;;4.50;3.97;;;;;;;;;;5091035;28;20200;-84
2023/01/11 07:40:47;;;;;;;4.03;3.63;;;;;;;;;;5090895;28;20207;-83
2023/01/11 07:43:13;;;;;;;5.20;4.63;;;;;;;;;;5091264;28;20288;-82
2023/01/11 07:45:43;;;;;;;4.53;3.90;;;;;;;;;;5080516;28;20213;-83
2023/01/11 07:48:09;;;;;;;4.70;4.23;;;;;;;;;;5088757;28;20694;-83
2023/01/11 07:50:38;;;;;;;4.63;3.90;;;;;;;;;;5093774;28;20666;-84
2023/01/11 07:53:05;;;;;;;2.80;2.60;;;;;;;;;;5113924;28;20211;-83
2023/01/11 07:55:32;;;;;;;3.30;3.00;;;;;;;;;;5102905;28;20234;-82
2023/01/11 07:58:01;;;;;;;4.17;3.87;;;;;;;;;;5100795;28;20810;-82
2023/01/11 08:00:28;;;;;;;4.00;3.70;;;;;;;;;;5089060;28;20200;-83
2023/01/11 08:02:55;;;;;;;3.23;2.97;;;;;;;;;;5088550;28;20760;-82
2023/01/11 08:05:22;;;;;;;5.07;4.40;;;;;;;;;;5100241;28;20234;-83
2023/01/11 08:07:48;;;;;;;8.53;4.13;;;;;;;;;;5101842;28;20218;-83
2023/01/11 08:10:16;;;;;;;3.73;3.23;;;;;;;;;;5102256;28;20227;-83
2023/01/11 08:15:30;;;;;;;3.60;3.30;;;;;;;;;;5114651;28;20214;-82
2023/01/11 08:17:57;;;;;;;3.57;3.27;;;;;;;;;;5114359;28;20215;-83
2023/01/11 08:20:25;;;;;;;2.97;2.77;;;;;;;;;;5087650;28;20677;-83
2023/01/11 08:22:52;;;;;;;3.07;2.77;;;;;;;;;;5094098;28;20221;-82
2023/01/11 08:25:19;;;;;;;2.87;2.67;;;;;;;;;;5105361;28;20199;-83
2023/01/11 08:27:46;;;;;;;3.33;3.03;;;;;;;;;;5105092;28;20207;-83
2023/01/11 08:30:14;;;;;;;3.53;3.23;;;;;;;;;;5096706;28;20269;-85
2023/01/11 08:32:42;;;;;;;3.53;3.00;;;;;;;;;;5083487;28;20201;-83
2023/01/11 08:35:09;;;;;;;2.03;1.90;;;;;;;;;;5096563;28;20207;-83
2023/01/11 08:37:36;;;;;;;1.40;1.30;;;;;;;;;;5103506;28;20200;-83
2023/01/11 08:40:03;;;;;;;2.27;2.07;;;;;;;;;;5112336;28;20257;-83
2023/01/11 08:42:29;;;;;;;1.67;1.57;;;;;;;;;;5102595;28;20413;-82
2023/01/11 08:44:56;;;;;;;1.43;1.33;;;;;;;;;;5102900;28;20278;-83
2023/01/11 08:47:23;;;;;;;1.50;1.40;;;;;;;;;;5098217;28;20199;-84
2023/01/11 08:49:51;;;;;;;2.47;2.27;;;;;;;;;;5108927;28;20603;-83
2023/01/11 08:52:18;;;;;;;2.57;2.37;;;;;;;;;;5081451;28;20219;-83
2023/01/11 08:54:44;;;;;;;4.17;3.50;;;;;;;;;;5099708;28;20206;-83
2023/01/11 08:57:11;;;;;;;2.40;2.20;;;;;;;;;;5101344;28;20196;-82
2023/01/11 08:59:38;;;;;;;3.77;1.90;;;;;;;;;;5113534;28;20626;-83
2023/01/11 09:02:06;;;;;;;1.80;1.40;;;;;;;;;;5113699;28;20223;-82
2023/01/11 09:04:33;;;;;;;2.90;2.70;;;;;;;;;;5094009;28;20624;-82
2023/01/11 09:07:02;;;;;;;1.53;1.43;;;;;;;;;;5087814;28;20285;-83
2023/01/11 09:09:30;;;;;;;2.13;1.30;;;;;;;;;;5085315;28;20683;-83
2023/01/11 09:11:59;;;;;;;1.93;1.73;;;;;;;;;;5093139;28;20212;-83
2023/01/11 09:14:27;;;;;;;1.73;1.63;;;;;;;;;;5081077;28;20212;-83
2023/01/11 09:16:55;;;;;;;2.10;1.97;;;;;;;;;;5093262;28;20207;-88
2023/01/11 09:19:22;;;;;;;1.37;1.27;;;;;;;;;;5101573;28;20629;-82
2023/01/11 09:21:50;;;;;;;8.60;6.30;;;;;;;;;;5086423;28;20197;-83
2023/01/11 09:24:18;;;;;;;2.90;2.60;;;;;;;;;;5113459;28;20260;-83
2023/01/11 09:26:45;;;;;;;1.40;1.30;;;;;;;;;;5110340;28;20418;-82
2023/01/11 09:29:12;;;;;;;1.37;1.27;;;;;;;;;;5090223;28;20203;-83
2023/01/11 09:31:39;;;;;;;1.60;1.50;;;;;;;;;;5111521;28;20203;-83
2023/01/11 09:34:07;;;;;;;2.00;1.87;;;;;;;;;;5093353;28;20580;-83
2023/01/11 09:36:35;;;;;;;3.13;2.83;;;;;;;;;;5095109;28;20211;-83
2023/01/11 09:39:06;;;;;;;2.60;2.40;;;;;;;;;;5113230;28;20260;-83
2023/01/11 09:42:15;;;;;;;5.50;4.57;;;;;;;;;;5113403;28;20373;-83
2023/01/11 09:44:49;;;;;;;4.30;4.00;;;;;;;;;;5097168;28;20639;-83
2023/01/11 09:47:20;;;;;;;3.30;3.00;;;;;;;;;;5092673;28;20268;-83
2023/01/11 09:49:53;;;;;;;6.07;5.53;;;;;;;;;;5106547;28;20269;-82
2023/01/11 09:52:27;;;;;;;5.57;5.10;;;;;;;;;;5105151;28;20280;-82
2023/01/11 09:54:56;;;;;;;5.67;5.07;;;;;;;;;;5113044;28;20677;-83
2023/01/11 09:57:32;;;;;;;5.50;4.90;;;;;;;;;;5113058;28;20207;-84
2023/01/11 10:00:08;;;;;;;3.70;3.30;;;;;;;;;;5072251;28;20205;-83
2023/01/11 10:02:43;;;;;;;8.27;7.47;;;;;;;;;;5105927;28;20313;-82
2023/01/11 10:05:29;;;;;;;9.70;8.63;;;;;;;;;;5112960;28;20366;-82
2023/01/11 10:08:04;;;;;;;27.87;22.27;;;;;;;;;;5104962;28;20200;-83
2023/01/11 10:10:42;;;;;;;13.07;11.37;;;;;;;;;;5107539;28;20233;-83
2023/01/11 10:13:16;;;;;;;46.60;36.80;;;;;;;;;;5101627;28;20204;-82
2023/01/11 10:15:52;;;;;;;37.63;32.47;;;;;;;;;;5092567;28;20630;-81
2023/01/11 10:18:32;;;;;;;17.17;13.43;;;;;;;;;;5092553;28;20215;-81
2023/01/11 10:21:05;;;;;;;13.30;11.90;;;;;;;;;;5091952;28;20215;-81
2023/01/11 10:23:45;;;;;;;7.50;6.63;;;;;;;;;;5092515;28;20227;-82
2023/01/11 10:26:25;;;;;;;25.10;18.90;;;;;;;;;;5091977;28;20257;-82
2023/01/11 10:29:12;;;;;;;57.03;37.63;;;;;;;;;;5105868;28;20706;-82
2023/01/11 10:31:57;;;;;;;69.47;46.37;;;;;;;;;;5092280;28;20678;-82
2023/01/11 10:34:41;;;;;;;13.93;8.77;;;;;;;;;;5091935;28;20291;-82
2023/01/11 10:37:29;;;;;;;5.30;4.13;;;;;;;;;;5099406;28;20207;-82
2023/01/11 10:40:18;;;;;;;6.50;5.77;;;;;;;;;;5108619;28;20282;-82
2023/01/11 10:42:51;;;;;;;3.73;3.43;;;;;;;;;;5092220;28;20224;-82
2023/01/11 10:45:19;;;;;;;3.50;3.10;;;;;;;;;;5079527;28;20265;-82
2023/01/11 10:47:52;;;;;;;4.17;3.77;;;;;;;;;;5078064;28;20244;-85
2023/01/11 10:50:23;;;;;;;4.10;3.70;;;;;;;;;;5091558;28;20204;-81
2023/01/11 10:52:54;;;;;;;3.13;2.83;;;;;;;;;;5091871;28;20216;-82
2023/01/11 10:55:24;;;;;;;9.97;7.03;;;;;;;;;;5091435;28;20205;-82
2023/01/11 10:57:59;;;;;;;5.53;4.23;;;;;;;;;;5095677;28;20203;-83
2023/01/11 11:00:34;;;;;;;9.20;6.20;;;;;;;;;;5086844;28;20204;-82
2023/01/11 11:03:18;;;;;;;9.83;8.23;;;;;;;;;;5085105;28;20321;-83
2023/01/11 11:05:48;;;;;;;4.80;4.10;;;;;;;;;;5106917;28;20227;-82
2023/01/11 11:08:23;;;;;;;4.00;3.47;;;;;;;;;;5090928;28;20250;-81
2023/01/11 11:10:55;;;;;;;3.93;3.00;;;;;;;;;;5093497;28;20200;-82
2023/01/11 11:13:26;;;;;;;3.40;2.87;;;;;;;;;;5079913;28;20213;-82
2023/01/11 11:15:56;;;;;;;3.43;3.13;;;;;;;;;;5090265;28;20265;-83
2023/01/11 11:18:24;;;;;;;3.83;3.40;;;;;;;;;;5078075;28;20282;-82
2023/01/11 11:20:51;;;;;;;3.43;3.10;;;;;;;;;;5111603;28;20233;-82
2023/01/11 11:23:21;;;;;;;7.77;6.13;;;;;;;;;;5110840;28;20280;-82
2023/01/11 11:25:51;;;;;;;19.20;14.50;;;;;;;;;;5078076;28;20240;-83
2023/01/11 11:28:26;;;;;;;6.93;5.87;;;;;;;;;;5091111;28;20211;-82
2023/01/11 11:30:54;;;;;;;7.33;6.63;;;;;;;;;;5100834;28;20259;-81
2023/01/11 11:33:25;;;;;;;2.97;2.67;;;;;;;;;;5094493;28;20200;-82
2023/01/11 11:35:56;;;;;;;10.77;8.97;;;;;;;;;;5090696;28;20629;-83
2023/01/11 11:38:25;;;;;;;10.23;8.60;;;;;;;;;;5095942;28;20704;-82
2023/01/11 11:41:04;;;;;;;8.63;7.43;;;;;;;;;;5099654;28;20200;-82
2023/01/11 11:43:31;;;;;;;12.73;10.30;;;;;;;;;;5097842;28;20249;-82
2023/01/11 11:45:59;;;;;;;9.77;7.23;;;;;;;;;;5097498;28;20725;-83
2023/01/11 11:48:30;;;;;;;18.57;13.23;;;;;;;;;;5090770;28;20215;-81
2023/01/11 11:50:58;;;;;;;8.47;7.63;;;;;;;;;;5090262;28;20200;-83
2023/01/11 11:53:30;;;;;;;4.17;3.87;;;;;;;;;;5090941;28;20251;-82
2023/01/11 11:55:57;;;;;;;6.20;4.27;;;;;;;;;;5102463;28;20214;-82
2023/01/11 11:58:25;;;;;;;4.13;3.73;;;;;;;;;;5089034;28;20320;-82
2023/01/11 12:00:52;;;;;;;3.93;3.37;;;;;;;;;;5110972;28;20207;-82
2023/01/11 12:03:21;;;;;;;2.73;2.23;;;;;;;;;;5110587;28;20234;-82
2023/01/11 12:05:54;;;;;;;2.77;2.57;;;;;;;;;;5080502;28;20790;-82
2023/01/11 12:08:23;;;;;;;3.23;2.93;;;;;;;;;;5101533;28;20203;-82
2023/01/11 12:10:52;;;;;;;5.43;4.17;;;;;;;;;;5102501;28;20200;-82
2023/01/11 12:13:33;;;;;;;4.50;4.10;;;;;;;;;;5070217;28;20208;-83
2023/01/11 12:16:01;;;;;;;6.20;5.17;;;;;;;;;;5077037;28;20211;-82
2023/01/11 12:18:32;;;;;;;4.03;2.93;;;;;;;;;;5077484;28;20204;-83
2023/01/11 12:21:17;;;;;;;4.50;4.10;;;;;;;;;;5090693;28;20204;-84
2023/01/11 12:23:44;;;;;;;5.93;5.30;;;;;;;;;;5090369;28;20224;-82
2023/01/11 12:26:20;;;;;;;3.97;3.67;;;;;;;;;;5091051;28;20203;-82
2023/01/11 12:29:16;;;;;;;5.13;3.57;;;;;;;;;;5090478;28;20200;-82
2023/01/11 12:31:51;;;;;;;3.40;2.80;;;;;;;;;;5078640;28;20196;-82
2023/01/11 12:34:31;;;;;;;1.83;1.73;;;;;;;;;;5079788;28;20197;-83
2023/01/11 12:37:05;;;;;;;2.30;2.10;;;;;;;;;;5107094;28;20207;-82
2023/01/11 12:39:39;;;;;;;1.97;1.83;;;;;;;;;;5093914;28;20212;-86
2023/01/11 12:42:27;;;;;;;1.67;1.57;;;;;;;;;;5074198;28;20188;-83
2023/01/11 12:45:02;;;;;;;2.23;1.60;;;;;;;;;;5075418;28;20281;-82
2023/01/11 12:47:54;;;;;;;1.70;1.50;;;;;;;;;;5094486;28;20204;-82
2023/01/11 12:50:23;;;;;;;2.10;1.83;;;;;;;;;;5093118;28;20644;-83
2023/01/11 12:53:18;;;;;;;2.00;1.87;;;;;;;;;;5087229;28;20199;-83
2023/01/11 12:55:55;;;;;;;4.07;3.50;;;;;;;;;;5086699;28;20566;-83
2023/01/11 12:58:26;;;;;;;19.37;14.37;;;;;;;;;;5103254;28;20210;-82
2023/01/11 13:01:16;;;;;;;91.53;68.23;;;;;;;;;;5114497;28;20289;-83
2023/01/11 13:04:03;;;;;;;14.20;10.07;;;;;;;;;;5114338;28;20227;-83
2023/01/11 13:06:35;;;;;;;25.00;18.73;;;;;;;;;;5082459;28;20239;-84
2023/01/11 13:09:07;;;;;;;10.60;9.13;;;;;;;;;;5090796;28;20201;-82
2023/01/11 13:11:44;;;;;;;21.00;15.33;;;;;;;;;;5084016;28;20212;-84
2023/01/11 13:14:26;;;;;;;10.23;9.20;;;;;;;;;;5099079;28;20210;-82
2023/01/11 13:16:56;;;;;;;3.47;3.17;;;;;;;;;;5112567;28;20210;-82
2023/01/11 13:19:27;;;;;;;3.50;3.20;;;;;;;;;;5101529;28;21050;-81
2023/01/11 13:21:55;;;;;;;3.20;2.90;;;;;;;;;;5098330;28;20207;-81
2023/01/11 13:24:26;;;;;;;6.57;5.90;;;;;;;;;;5093306;28;20228;-82
2023/01/11 13:26:54;;;;;;;14.20;11.93;;;;;;;;;;5095946;28;20207;-83
2023/01/11 13:29:25;;;;;;;8.40;7.60;;;;;;;;;;5113455;28;20203;-82
2023/01/11 13:31:53;;;;;;;10.23;9.20;;;;;;;;;;5087377;28;20675;-82
2023/01/11 13:34:23;;;;;;;15.83;13.60;;;;;;;;;;5095542;28;20619;-82
2023/01/11 13:36:54;;;;;;;5.87;5.13;;;;;;;;;;5094655;28;20219;-82
2023/01/11 13:39:27;;;;;;;7.70;6.77;;;;;;;;;;5093369;28;20209;-82
2023/01/11 13:41:55;;;;;;;2.30;2.10;;;;;;;;;;5079303;28;20687;-83
2023/01/11 13:44:25;;;;;;;7.27;6.57;;;;;;;;;;5092759;28;20586;-82
2023/01/11 13:47:00;;;;;;;9.87;8.80;;;;;;;;;;5079463;28;20564;-83
2023/01/11 13:49:52;;;;;;;2.00;1.90;;;;;;;;;;5079418;28;20200;-82
2023/01/11 13:52:21;;;;;;;3.37;2.67;;;;;;;;;;5103231;28;20212;-83
2023/01/11 13:54:58;;;;;;;2.73;2.50;;;;;;;;;;5092839;28;20281;-82
2023/01/11 13:57:30;;;;;;;2.70;1.80;;;;;;;;;;5092828;28;20204;-82
2023/01/11 14:00:02;;;;;;;2.60;1.83;;;;;;;;;;5092599;28;20197;-82
2023/01/11 14:02:35;;;;;;;3.60;3.13;;;;;;;;;;5090648;28;20199;-82
2023/01/11 14:05:09;;;;;;;3.93;1.77;;;;;;;;;;5072400;28;20237;-83
2023/01/11 14:07:45;;;;;;;2.23;2.00;;;;;;;;;;5104127;28;20227;-86
2023/01/11 14:10:24;;;;;;;1.93;1.73;;;;;;;;;;5092484;28;20671;-83
2023/01/11 14:13:10;;;;;;;8.03;6.83;;;;;;;;;;5092378;28;20197;-83
2023/01/11 14:15:40;;;;;;;4.03;3.63;;;;;;;;;;5092270;28;20613;-83
2023/01/11 14:18:24;;;;;;;6.37;5.77;;;;;;;;;;5092350;28;20216;-83
2023/01/11 14:20:59;;;;;;;10.13;9.13;;;;;;;;;;5070997;28;20197;-82
2023/01/11 14:23:31;;;;;;;2.70;2.50;;;;;;;;;;5073984;28;20204;-82
2023/01/11 14:26:14;;;;;;;11.83;10.63;;;;;;;;;;5101735;28;20203;-82
2023/01/11 14:28:53;;;;;;;2.93;2.47;;;;;;;;;;5099096;28;20203;-84
2023/01/11 14:31:43;;;;;;;6.50;5.90;;;;;;;;;;5085804;28;20205;-82
2023/01/11 14:34:22;;;;;;;9.57;8.30;;;;;;;;;;5081953;28;20208;-83
2023/01/11 14:37:08;;;;;;;3.27;2.97;;;;;;;;;;5110758;28;20207;-83
2023/01/11 14:40:14;;;;;;;4.90;3.10;;;;;;;;;;5099139;28;20208;-83
2023/01/11 14:43:07;;;;;;;1.80;1.70;;;;;;;;;;5098402;28;20589;-82
2023/01/11 14:45:59;;;;;;;1.00;1.00;;;;;;;;;;5091955;28;20607;-82
2023/01/11 14:48:29;;;;;;;15.57;11.57;;;;;;;;;;5077311;28;20261;-82
2023/01/11 14:51:26;;;;;;;3.57;2.57;;;;;;;;;;5091515;28;20203;-83
2023/01/11 14:54:01;;;;;;;2.40;2.00;;;;;;;;;;5090484;28;20196;-82
2023/01/11 14:56:35;;;;;;;1.70;0.97;;;;;;;;;;5086576;28;20207;-82
2023/01/11 14:59:05;;;;;;;1.10;1.10;;;;;;;;;;5095026;28;20210;-82
2023/01/11 15:02:08;;;;;;;3.23;2.70;;;;;;;;;;5082038;28;20201;-82
2023/01/11 15:04:36;;;;;;;5.83;5.23;;;;;;;;;;5068734;28;20234;-82
2023/01/11 15:07:22;;;;;;;2.43;2.20;;;;;;;;;;5084762;28;20204;-81
2023/01/11 15:09:52;;;;;;;16.23;13.20;;;;;;;;;;5079984;28;20216;-84
2023/01/11 15:12:21;;;;;;;0.90;0.90;;;;;;;;;;5070280;28;20291;-82
2023/01/11 15:14:56;;;;;;;3.47;3.00;;;;;;;;;;5072843;28;20215;-82
2023/01/11 15:20:12;;;;;;;0.30;0.30;;;;;;;;;;5103948;28;20214;-83
2023/01/11 15:22:40;;;;;;;1.63;1.30;;;;;;;;;;5087294;28;20207;-84
2023/01/11 15:25:20;;;;;;;2.10;1.90;;;;;;;;;;5108501;28;20234;-83
2023/01/11 15:27:49;;;;;;;12.87;11.17;;;;;;;;;;5091904;28;20203;-81